Aérodrome :
LOGIN :

S'inscrire | Disclaimer

   EN    FR    IT 

 










Légende :    VFR   VFR Marginal   IFR   IFR Intensif   IFR Très Intensif
Visi : 
Plafond : 
>= 8 km
>= 3000ft
5 à 8 km
1000 à 3000 ft
1500m à 5 km
500 à 1000 ft
800 à 1500m
200 à 500 ft
< 800m
< 200 ft
Symboles :   Orages  Brouillard  Fortes neiges  Fortes précipitations  Vent > 20 kt
SIGMETs :   Divers  Orages  Givrage  Turbulence  Onde Orograph.  Cendres Volcan.






- Altitude de l'aérodrome : 157 ft


LESB - Son Bonet

DERNIER METAR :
  • 211100Z AUTO 09017G29KT 060V130 9999 FEW021/// BKN025/// BKN028/// 15/11 Q1018

METARs EXPIRÉS :
  • 211030Z AUTO 10013KT 4100 -SHRA SCT020/// OVC024/// ///TCU 14/12 Q1019
  • 211000Z AUTO 09016KT 060V120 9999 FEW021/// BKN024/// BKN028/// 15/11 Q1019
  • 210930Z AUTO 10013G25KT 4600 -RA FEW019/// SCT021/// BKN025/// 14/12 Q1019
  • 210900Z AUTO 09015KT 060V120 9999 SCT021/// BKN025/// BKN028/// 14/11 Q1018
  • 210830Z AUTO 08013KT 9999 SCT020/// BKN024/// BKN030/// 14/11 Q1018

TAF N/A



MET'MAP, la Météo Aéronautique d'un coup d'oeil ! - Copyright ORBIFLY Décembre 2007 - Disclaimer

ORBIFLY MET'MAP TEAM :

Programmation & Développement : Alexandra Zaïnal
Sur une idée originale de : Baudouin d'Aumeries
Assistance à la programmation : Marc-Olivier Méhu
Soutien technique & logistique : Manuel Goepfert

Contact : metmap@orbifly.com




SOURCES & CREDITS :

   NOAA